Terminal Aerodrome Forecast
Issued by NWS

Home | Current Version | Previous Version | Text Only | Print | Product List | Glossary On
Versions: 1 2 3 4 5 6 7 8 9 10 11 12 13 14 15 16 17 18 19 20 21 22 23 24 25
000
FTUS41 KBUF 010222 AAA
TAFJHW
TAF AMD
KJHW 010222Z 0102/0124 11006KT P6SM -RA OVC045
     FM010500 12011G18KT 6SM -RA OVC012
     FM010800 15015G24KT 6SM -RA OVC003
     FM011600 19012G18KT 6SM -SHRA OVC003
     FM012000 26009KT 6SM -SHRA OVC003
     FM012200 28008KT P6SM OVC003
      AMD LTD TO CLD VIS AND WIND=

USA.gov is the U.S. government's official web portal to all federal, state and local government web resources and services.